• Join FlightAware (Why Join?)
  • Login
  • US Flag 
12:43PM EST


 

Airport Tracker/Info


-or-


 

Live Flight TrackerFlight Track Log ✈ FDX1122 ✈ 27-Feb-2014 ✈ KDEN - KAFW

Flight Track Log - Related Links

Times and Time Zones

All times are in EST time to prevent confusion due to time zone crossing. See the FDX1122 flight status page for this flight to view local times or setup timezone preferences in your user account.

Time Position Orientation Groundspeed Altitude Reporting Facility
EST Latitude Longitude Course Direction KTS MPH feet Rate Location/Type
11:48PM 39.8483 -104.6603 North 145 167  Level FlightAware ADS-B (ZSPD / PVG)
11:49PM 39.8289 -104.6610 183° South 173 199 6,700 9,913 Climbing FlightAware ADS-B (KEIK)
11:49PM 39.8125 -104.6617 174° South 183 211 7,600 2,400 Climbing FlightAware ADS-B (KEIK)
11:49PM 39.8066 -104.6602 167° South 186 214 7,700 1,500 Climbing FlightAware ADS-B (ZSPD / PVG)
11:49PM 39.8017 -104.6573 151° Southeast 192 221 7,900 1,500 Climbing FlightAware ADS-B (KEIK)
11:49PM 39.7949 -104.6492 132° Southeast 205 236 8,100 1,286 Climbing FlightAware ADS-B (KEIK)
11:49PM 39.7918 -104.6439 122° Southeast 218 251 8,200 1,636 Climbing FlightAware ADS-B (ZSPD / PVG)
11:50PM 39.7915 -104.6426 116° Southeast 226 260 8,400 1,826 Climbing FlightAware ADS-B (KEIK)
11:50PM 39.7811 -104.6140 116° Southeast 255 293 8,900 2,000 Climbing FlightAware ADS-B (ZSPD / PVG)
11:50PM 39.7698 -104.5872 120° Southeast 277 319 9,700 2,651 Climbing FlightAware ADS-B
11:51PM 39.7584 -104.5502 105° East 297 342 10,800 2,588 Climbing FlightAware ADS-B (KEIK)
11:51PM 39.7496 -104.5063 105° East 337 388 11,900 1,800 Climbing FlightAware ADS-B (KEIK)
11:52PM 39.7355 -104.4416 107° East 378 435 12,600 2,229 Climbing FlightAware ADS-B (KEIK)
11:52PM 39.7124 -104.3404 106° East 401 461 14,500 2,583 Climbing FlightAware ADS-B (ZSPD / PVG)
11:53PM 39.6975 -104.2722 106° East 412 474 15,700 2,500 Climbing FlightAware ADS-B
11:53PM 39.6752 -104.1709 106° East 423 487 17,500 2,657 Climbing FlightAware ADS-B (KEIK)
11:54PM 39.6587 -104.0969 106° East 431 496 18,800 2,400 Climbing FlightAware ADS-B (KEIK)
11:54PM 39.6434 -104.0269 106° East 439 505 19,900 2,200 Climbing FlightAware ADS-B (KEIK)
11:55PM 39.6271 -103.9527 106° East 447 514 21,000 2,149 Climbing FlightAware ADS-B (KEIK)
11:56PM 39.6044 -103.8515 106° East 458 527 22,300 2,087 Climbing FlightAware ADS-B (ZSPD / PVG)
11:56PM 39.5857 -103.7691 107° East 464 534 23,400 2,000 Climbing FlightAware ADS-B
11:57PM 39.5629 -103.6816 109° East 471 542 24,400 1,935 Climbing FlightAware ADS-B (KEIK)
11:57PM 39.5418 -103.6038 109° East 479 551 25,400 1,770 Climbing FlightAware ADS-B (KEIK)
11:58PM 39.5193 -103.5193 109° East 485 558 26,200 1,672 Climbing FlightAware ADS-B (KEIK)
11:58PM 39.4965 -103.4337 109° East 492 566 27,100 1,672 Climbing FlightAware ADS-B (KEIK)
11:59PM 39.4736 -103.3467 109° East 497 572 27,900 1,775 Climbing FlightAware ADS-B (KEIK)
11:59PM 39.4429 -103.2305 109° East 503 579 29,200 2,127 Climbing FlightAware ADS-B (KEIK)
12:00AM 39.4139 -103.1204 109° East 498 573 30,700 2,229 Climbing FlightAware ADS-B (KEIK)
12:00AM 39.3923 -103.0394 109° East 493 567 31,800 2,000 Climbing FlightAware ADS-B
12:01AM 39.3678 -102.9481 109° East 489 563 32,800 1,180 Climbing FlightAware ADS-B (KEIK)
12:02AM 39.3457 -102.8680 109° East 490 564 33,000 182 Climbing FlightAware ADS-B (KEIK)
12:02AM 39.3175 -102.7625 109° East 497 572 33,000  Level FlightAware ADS-B (ZSPD / PVG)
12:03AM 39.2963 -102.6838 109° East 500 575 33,000  Level FlightAware ADS-B
12:03AM 39.2757 -102.6081 109° East 497 572 33,000  Level FlightAware ADS-B (KEIK)
12:04AM 39.2416 -102.4988 120° Southeast 493 567 33,000  Level FlightAware ADS-B (ZSPD / PVG)
12:04AM 39.2117 -102.4471 131° Southeast 491 565 33,000  Level FlightAware ADS-B (ZSPD / PVG)
12:04AM 39.1855 -102.4157 142° Southeast 490 564 33,000  Level FlightAware ADS-B (KEIK)
12:05AM 39.1310 -102.3697 148° Southeast 488 562 33,000  Level FlightAware ADS-B
12:06AM 39.0474 -102.3045 149° Southeast 487 560 33,000  Level FlightAware ADS-B (ZSPD / PVG)
12:06AM 38.9856 -102.2559 149° Southeast 490 564 33,000  Level FlightAware ADS-B (KEIK)
12:07AM 38.9150 -102.1998 149° Southeast 489 563 33,000  Level FlightAware ADS-B (KEIK)
12:07AM 38.8347 -102.1360 148° Southeast 489 563 33,000 1,116 Level FlightAware ADS-B
12:08AM 38.7444 -102.0652 149° Southeast 486 559 34,600 1,636 Climbing FlightAware ADS-B (KEIK)
12:09AM 38.7444 -102.0652 149° Southeast 495 570 35,100 1,000 Climbing FlightAware ADS-B (KEIK)
12:10AM 38.6201 -101.9678 149° Southeast 505 581 36,100 708 Climbing FlightAware ADS-B
12:11AM 38.4428 -101.8299 149° Southeast 523 602 37,000 367 Climbing FlightAware ADS-B
12:12AM 38.2722 -101.6978 149° Southeast 523 602 37,000  Level Denver Center
12:13AM 38.1325 -101.5897 149° Southeast 525 604 37,000  Level Denver Center
12:14AM 38.0725 -101.5431 149° Southeast 524 603 37,000  Level Kansas City Center
12:15AM 37.9322 -101.4353 149° Southeast 528 608 37,000 689 Level Kansas City Center
12:16AM 37.8136 -101.3450 149° Southeast 527 606 38,400 984 Climbing Kansas City Center
12:17AM 37.6769 -101.2414 149° Southeast 520 598 39,000 295 Climbing Kansas City Center
12:18AM 37.5583 -101.1511 149° Southeast 522 601 39,000 246 Level Kansas City Center
12:19AM 37.4383 -101.0611 149° Southeast 527 606 39,500 843 Climbing Kansas City Center
12:20AM 37.3014 -100.9567 149° Southeast 524 603 40,700 744 Climbing Kansas City Center
12:21AM 37.1825 -100.8675 149° Southeast 524 603 41,000 148 Climbing Kansas City Center
12:22AM 37.0417 -100.7633 149° Southeast 525 604 41,000  Level Kansas City Center
12:23AM 36.9197 -100.6719 149° Southeast 531 611 41,000  Level Kansas City Center
12:24AM 36.7967 -100.5822 150° Southeast 533 613 41,000  Level Kansas City Center
12:25AM 36.6531 -100.4758 149° Southeast 535 616 41,000  Level Kansas City Center
12:26AM 36.5267 -100.3819 149° Southeast 535 616 41,000  Level Kansas City Center
12:27AM 36.3986 -100.2892 150° Southeast 535 616 41,000  Level Kansas City Center
12:28AM 36.2703 -100.1953 149° Southeast 535 616 41,000  Level Kansas City Center
12:29AM 36.1442 -100.1039 150° Southeast 535 616 41,000  Level Kansas City Center
12:30AM 36.0178 -100.0094 149° Southeast 534 615 41,000  Level Kansas City Center
12:31AM 35.8839 -99.9025 147° Southeast 534 615 41,000  Level Kansas City Center
12:32AM 35.7717 -99.8031 144° Southeast 534 615 41,000  Level Kansas City Center
12:33AM 35.6508 -99.6994 145° Southeast 534 615 41,000  Level Kansas City Center
12:34AM 35.5322 -99.5872 142° Southeast 535 616 41,000  Level Kansas City Center
12:35AM 35.4144 -99.4722 141° Southeast 541 623 41,000  Level Kansas City Center
12:36AM 35.2958 -99.3564 141° Southeast 543 625 41,000  Level Kansas City Center
12:37AM 35.1547 -99.2181 141° Southeast 544 626 41,000  Level Fort Worth Center
12:38AM 35.0381 -99.1025 141° Southeast 544 626 41,000  Level Fort Worth Center
12:39AM 34.9192 -98.9889 142° Southeast 543 625 41,000 -393 Level Fort Worth Center
12:40AM 34.8000 -98.8775 142° Southeast 543 625 40,200 -1,488 Descending Fort Worth Center
12:41AM 34.6831 -98.7644 142° Southeast 540 621 38,000 -2,182 Descending Fort Worth Center
12:42AM 34.5647 -98.6525 142° Southeast 540 621 35,800 -2,430 Descending Fort Worth Center
12:43AM 34.4469 -98.5394 142° Southeast 540 621 33,100 -2,876 Descending Fort Worth Center
12:44AM 34.3264 -98.4242 142° Southeast 532 612 30,000 -3,223 Descending Fort Worth Center
12:45AM 34.2164 -98.3189 142° Southeast 506 582 26,600 -3,074 Descending Fort Worth Center
12:46AM 34.1111 -98.2214 143° Southeast 482 555 23,800 -2,826 Descending Fort Worth Center
12:47AM 34.0017 -98.1181 142° Southeast 478 550 20,900 -2,876 Descending Fort Worth Center
12:48AM 33.9028 -98.0256 142° Southeast 470 541 18,000 -2,876 Descending Fort Worth Center
12:49AM 33.8003 -97.9289 142° Southeast 450 518 15,100 -2,800 Descending Fort Worth Center
12:50AM 33.7081 -97.8439 143° Southeast 431 496 12,400 -2,231 Descending Fort Worth Center
12:51AM 33.6208 -97.7631 142° Southeast 412 474 10,600 -1,149 Descending Fort Worth Center
12:57AM 33.2308 -97.4550 146° Southeast 247 284 4,700 -1,014 Descending FlightAware ADS-B
12:57AM 33.2131 -97.4411 146° Southeast 236 272 4,500 -750 Descending FlightAware ADS-B
12:58AM 33.1986 -97.4297 146° Southeast 228 262 4,200 -968 Descending FlightAware ADS-B
12:59AM 33.1388 -97.3827 146° Southeast 194 223 3,000 -944 Descending FlightAware ADS-B
12:59AM 33.1266 -97.3730 146° Southeast 184 212 2,800 -486 Descending FlightAware ADS-B
12:59AM 33.1158 -97.3646 146° Southeast 164 189 2,700 -293 Descending FlightAware ADS-B
01:00AM 33.1016 -97.3532 147° Southeast 142 163 2,600 -150 Descending FlightAware ADS-B
01:00AM 33.0905 -97.3448 146° Southeast 138 159 2,600 -146 Level FlightAware ADS-B
01:00AM 33.0809 -97.3378 151° Southeast 129 148 2,500 -545 Descending FlightAware ADS-B
01:01AM 33.0736 -97.3356 172° South 116 133 2,300 -750 Descending FlightAware ADS-B
01:01AM 33.0630 -97.3333 170° South 104 120 2,100 -450 Descending FlightAware ADS-B
01:01AM 33.0535 -97.3314 170° South 94 108 2,000 -486 Descending FlightAware ADS-B
01:02AM 33.0464 -97.3299 170° South 95 109 1,800 -649 Descending FlightAware ADS-B
01:02AM 33.0381 -97.3284 170° South 98 113 1,600 -450 Descending FlightAware ADS-B
01:02AM 33.0294 -97.3265 170° South 103 119 1,500 -453 Descending FlightAware ADS-B
01:03AM 33.0125 -97.3231 169° South 108 124 1,200 -612 Descending FlightAware ADS-B
01:03AM 33.0040 -97.3213 170° South 108 124 1,000 -600 Descending FlightAware ADS-B
01:03AM 33.0037 -97.3213 170° South 108 124 800 -500 Descending FlightAware ADS-B
01:11AM 32.9833 -97.3167 161° South  Level FlightAware Approximate
01:12AM 32.9876 -97.3188 161° South  Level Estimated